sensor_id;sensor_type;location;lat;lon;timestamp;pressure;altitude;pressure_sealevel;temperature;humidity
37170;BME280;23062;13.952;100.608;2022-08-01T00:02:28;1004.45;;;29.78;100.00
37170;BME280;23062;13.952;100.608;2022-08-01T00:07:19;1004.54;;;29.78;100.00
37170;BME280;23062;13.952;100.608;2022-08-01T00:12:08;1004.65;;;29.79;100.00
37170;BME280;23062;13.952;100.608;2022-08-01T00:16:59;1004.74;;;29.77;100.00
37170;BME280;23062;13.952;100.608;2022-08-01T00:21:49;1004.79;;;29.75;100.00
37170;BME280;23062;13.952;100.608;2022-08-01T00:26:39;1004.77;;;29.80;100.00
37170;BME280;23062;13.952;100.608;2022-08-01T00:31:28;1004.86;;;29.71;100.00
37170;BME280;23062;13.952;100.608;2022-08-01T00:36:18;1004.89;;;29.76;100.00
37170;BME280;23062;13.952;100.608;2022-08-01T00:41:08;1004.98;;;29.74;100.00
37170;BME280;23062;13.952;100.608;2022-08-01T00:45:57;1005.01;;;29.72;100.00
37170;BME280;23062;13.952;100.608;2022-08-01T00:50:47;1005.10;;;29.66;100.00
37170;BME280;23062;13.952;100.608;2022-08-01T00:55:37;1005.10;;;29.51;100.00
37170;BME280;23062;13.952;100.608;2022-08-01T01:00:27;1005.15;;;29.52;100.00
37170;BME280;23062;13.952;100.608;2022-08-01T01:05:17;1005.25;;;29.64;100.00
37170;BME280;23062;13.952;100.608;2022-08-01T01:10:17;1005.34;;;29.56;100.00
37170;BME280;23062;13.952;100.608;2022-08-01T01:15:15;1005.42;;;29.61;100.00
37170;BME280;23062;13.952;100.608;2022-08-01T01:20:06;1005.50;;;29.51;100.00
37170;BME280;23062;13.952;100.608;2022-08-01T01:30:05;1005.67;;;29.65;100.00
37170;BME280;23062;13.952;100.608;2022-08-01T01:34:55;1005.63;;;29.65;100.00
37170;BME280;23062;13.952;100.608;2022-08-01T01:39:48;1005.66;;;29.59;100.00
37170;BME280;23062;13.952;100.608;2022-08-01T01:44:38;1005.70;;;29.68;100.00
37170;BME280;23062;13.952;100.608;2022-08-01T01:49:29;1005.65;;;29.61;100.00
37170;BME280;23062;13.952;100.608;2022-08-01T01:54:20;1005.75;;;29.65;100.00
37170;BME280;23062;13.952;100.608;2022-08-01T01:59:11;1005.74;;;29.72;100.00
37170;BME280;23062;13.952;100.608;2022-08-01T02:04:00;1005.76;;;29.66;100.00
37170;BME280;23062;13.952;100.608;2022-08-01T02:08:52;1005.78;;;29.63;100.00
37170;BME280;23062;13.952;100.608;2022-08-01T02:13:43;1005.74;;;29.69;100.00
37170;BME280;23062;13.952;100.608;2022-08-01T02:18:33;1005.81;;;29.82;100.00
37170;BME280;23062;13.952;100.608;2022-08-01T02:23:23;1005.82;;;29.75;100.00
37170;BME280;23062;13.952;100.608;2022-08-01T02:28:22;1005.76;;;29.76;100.00
37170;BME280;23062;13.952;100.608;2022-08-01T02:33:27;1005.76;;;29.68;100.00
37170;BME280;23062;13.952;100.608;2022-08-01T02:38:20;1005.82;;;29.58;100.00
37170;BME280;23062;13.952;100.608;2022-08-01T02:43:11;1005.80;;;29.75;100.00
37170;BME280;23062;13.952;100.608;2022-08-01T02:48:06;1005.78;;;29.85;100.00
37170;BME280;23062;13.952;100.608;2022-08-01T02:52:54;1005.76;;;29.85;100.00
37170;BME280;23062;13.952;100.608;2022-08-01T02:57:45;1005.75;;;29.71;100.00
37170;BME280;23062;13.952;100.608;2022-08-01T03:02:36;1005.69;;;29.84;100.00
37170;BME280;23062;13.952;100.608;2022-08-01T03:07:27;1005.65;;;29.87;100.00
37170;BME280;23062;13.952;100.608;2022-08-01T03:12:20;1005.69;;;29.93;100.00
37170;BME280;23062;13.952;100.608;2022-08-01T03:17:11;1005.66;;;30.01;100.00
37170;BME280;23062;13.952;100.608;2022-08-01T03:22:03;1005.59;;;30.13;100.00
37170;BME280;23062;13.952;100.608;2022-08-01T03:26:55;1005.54;;;30.04;100.00
37170;BME280;23062;13.952;100.608;2022-08-01T03:31:46;1005.55;;;30.11;100.00
37170;BME280;23062;13.952;100.608;2022-08-01T03:36:50;1005.54;;;30.14;100.00
37170;BME280;23062;13.952;100.608;2022-08-01T03:41:40;1005.44;;;30.05;100.00
37170;BME280;23062;13.952;100.608;2022-08-01T03:46:47;1005.38;;;30.25;100.00
37170;BME280;23062;13.952;100.608;2022-08-01T03:51:37;1005.35;;;30.19;100.00
37170;BME280;23062;13.952;100.608;2022-08-01T03:56:28;1005.23;;;30.31;100.00
37170;BME280;23062;13.952;100.608;2022-08-01T04:01:22;1005.09;;;30.35;100.00
37170;BME280;23062;13.952;100.608;2022-08-01T04:06:12;1004.93;;;30.39;100.00
37170;BME280;23062;13.952;100.608;2022-08-01T04:11:02;1004.86;;;30.46;100.00
37170;BME280;23062;13.952;100.608;2022-08-01T04:15:52;1004.97;;;30.53;100.00
37170;BME280;23062;13.952;100.608;2022-08-01T04:20:42;1005.06;;;30.47;100.00
37170;BME280;23062;13.952;100.608;2022-08-01T04:25:36;1005.10;;;30.49;100.00
37170;BME280;23062;13.952;100.608;2022-08-01T04:30:29;1005.02;;;30.56;100.00
37170;BME280;23062;13.952;100.608;2022-08-01T04:35:20;1004.91;;;30.58;100.00
37170;BME280;23062;13.952;100.608;2022-08-01T04:40:11;1004.75;;;30.59;100.00
37170;BME280;23062;13.952;100.608;2022-08-01T04:45:02;1004.48;;;30.60;100.00
37170;BME280;23062;13.952;100.608;2022-08-01T04:49:52;1004.31;;;30.61;100.00
37170;BME280;23062;13.952;100.608;2022-08-01T04:54:43;1004.35;;;30.68;100.00
37170;BME280;23062;13.952;100.608;2022-08-01T04:59:36;1004.35;;;30.69;100.00
37170;BME280;23062;13.952;100.608;2022-08-01T05:04:30;1004.24;;;30.73;100.00
37170;BME280;23062;13.952;100.608;2022-08-01T05:09:19;1004.25;;;30.74;100.00
37170;BME280;23062;13.952;100.608;2022-08-01T05:14:09;1004.54;;;30.64;100.00
37170;BME280;23062;13.952;100.608;2022-08-01T05:18:59;1004.70;;;30.45;91.77
37170;BME280;23062;13.952;100.608;2022-08-01T05:23:50;1004.86;;;30.23;91.18
37170;BME280;23062;13.952;100.608;2022-08-01T05:28:40;1005.02;;;30.04;91.33
37170;BME280;23062;13.952;100.608;2022-08-01T05:33:29;1005.06;;;29.94;90.90
37170;BME280;23062;13.952;100.608;2022-08-01T05:38:19;1005.10;;;29.69;96.48
37170;BME280;23062;13.952;100.608;2022-08-01T05:43:09;1005.22;;;29.65;99.38
37170;BME280;23062;13.952;100.608;2022-08-01T05:47:59;1005.23;;;29.80;97.39
37170;BME280;23062;13.952;100.608;2022-08-01T05:52:49;1005.05;;;29.92;97.06
37170;BME280;23062;13.952;100.608;2022-08-01T05:57:39;1005.16;;;30.02;96.76
37170;BME280;23062;13.952;100.608;2022-08-01T06:02:29;1005.32;;;30.06;96.67
37170;BME280;23062;13.952;100.608;2022-08-01T06:07:18;1005.50;;;30.09;96.98
37170;BME280;23062;13.952;100.608;2022-08-01T06:12:08;1005.34;;;30.03;95.17
37170;BME280;23062;13.952;100.608;2022-08-01T06:16:58;1005.12;;;30.03;94.80
37170;BME280;23062;13.952;100.608;2022-08-01T06:21:47;1005.00;;;29.99;94.82
37170;BME280;23062;13.952;100.608;2022-08-01T06:26:37;1004.93;;;29.97;95.62
37170;BME280;23062;13.952;100.608;2022-08-01T06:31:27;1004.76;;;30.03;97.19
37170;BME280;23062;13.952;100.608;2022-08-01T06:36:17;1004.63;;;30.02;97.48
37170;BME280;23062;13.952;100.608;2022-08-01T06:41:07;1004.52;;;30.03;98.54
37170;BME280;23062;13.952;100.608;2022-08-01T06:45:57;1004.48;;;30.03;98.96
37170;BME280;23062;13.952;100.608;2022-08-01T06:50:47;1004.25;;;30.06;99.66
37170;BME280;23062;13.952;100.608;2022-08-01T06:55:38;1004.03;;;30.01;99.72
37170;BME280;23062;13.952;100.608;2022-08-01T07:00:28;1003.97;;;30.03;99.37
37170;BME280;23062;13.952;100.608;2022-08-01T07:05:18;1003.87;;;30.04;99.18
37170;BME280;23062;13.952;100.608;2022-08-01T07:10:08;1003.71;;;30.01;99.00
37170;BME280;23062;13.952;100.608;2022-08-01T07:14:58;1003.65;;;29.97;98.96
37170;BME280;23062;13.952;100.608;2022-08-01T07:19:48;1003.60;;;29.99;98.26
37170;BME280;23062;13.952;100.608;2022-08-01T07:24:37;1003.55;;;29.98;99.19
37170;BME280;23062;13.952;100.608;2022-08-01T07:29:27;1003.49;;;29.99;99.51
37170;BME280;23062;13.952;100.608;2022-08-01T07:34:17;1003.32;;;29.94;99.38
37170;BME280;23062;13.952;100.608;2022-08-01T07:39:07;1003.21;;;29.95;99.19
37170;BME280;23062;13.952;100.608;2022-08-01T07:43:57;1003.15;;;29.94;99.61
37170;BME280;23062;13.952;100.608;2022-08-01T07:48:47;1003.15;;;29.96;100.00
37170;BME280;23062;13.952;100.608;2022-08-01T07:53:37;1003.15;;;29.94;100.00
37170;BME280;23062;13.952;100.608;2022-08-01T07:58:27;1003.10;;;29.96;99.43
37170;BME280;23062;13.952;100.608;2022-08-01T08:03:16;1003.16;;;29.95;99.76
37170;BME280;23062;13.952;100.608;2022-08-01T08:08:07;1003.10;;;29.95;100.00
37170;BME280;23062;13.952;100.608;2022-08-01T08:13:04;1003.02;;;29.92;100.00
37170;BME280;23062;13.952;100.608;2022-08-01T08:17:54;1003.04;;;29.95;100.00
37170;BME280;23062;13.952;100.608;2022-08-01T08:22:44;1003.06;;;29.97;100.00
37170;BME280;23062;13.952;100.608;2022-08-01T08:27:35;1002.95;;;29.84;100.00
37170;BME280;23062;13.952;100.608;2022-08-01T08:32:25;1002.86;;;29.92;100.00
37170;BME280;23062;13.952;100.608;2022-08-01T08:37:17;1002.83;;;30.07;100.00
37170;BME280;23062;13.952;100.608;2022-08-01T08:42:08;1002.71;;;30.06;100.00
37170;BME280;23062;13.952;100.608;2022-08-01T08:47:00;1002.58;;;30.12;100.00
37170;BME280;23062;13.952;100.608;2022-08-01T08:51:51;1002.59;;;30.15;100.00
37170;BME280;23062;13.952;100.608;2022-08-01T08:56:43;1002.69;;;30.22;100.00
37170;BME280;23062;13.952;100.608;2022-08-01T09:01:33;1002.53;;;30.03;100.00
37170;BME280;23062;13.952;100.608;2022-08-01T09:06:22;1002.30;;;29.85;100.00
37170;BME280;23062;13.952;100.608;2022-08-01T09:11:11;1002.25;;;29.87;100.00
37170;BME280;23062;13.952;100.608;2022-08-01T09:16:01;1002.21;;;29.87;100.00
37170;BME280;23062;13.952;100.608;2022-08-01T09:20:51;1002.10;;;29.86;100.00
37170;BME280;23062;13.952;100.608;2022-08-01T09:25:52;1002.21;;;29.91;100.00
37170;BME280;23062;13.952;100.608;2022-08-01T09:30:43;1002.20;;;29.89;100.00
37170;BME280;23062;13.952;100.608;2022-08-01T09:35:34;1002.16;;;29.89;100.00
37170;BME280;23062;13.952;100.608;2022-08-01T09:40:24;1002.23;;;29.91;100.00
37170;BME280;23062;13.952;100.608;2022-08-01T09:45:34;1002.27;;;29.88;100.00
37170;BME280;23062;13.952;100.608;2022-08-01T09:50:20;1002.30;;;29.90;100.00
37170;BME280;23062;13.952;100.608;2022-08-01T09:55:10;1002.25;;;29.89;100.00
37170;BME280;23062;13.952;100.608;2022-08-01T10:00:02;1002.29;;;29.90;100.00
37170;BME280;23062;13.952;100.608;2022-08-01T10:04:53;1002.26;;;29.90;100.00
37170;BME280;23062;13.952;100.608;2022-08-01T10:09:43;1002.28;;;29.94;100.00
37170;BME280;23062;13.952;100.608;2022-08-01T10:14:33;1002.36;;;29.82;100.00
37170;BME280;23062;13.952;100.608;2022-08-01T10:19:24;1002.35;;;29.82;100.00
37170;BME280;23062;13.952;100.608;2022-08-01T10:24:15;1002.42;;;29.82;100.00
37170;BME280;23062;13.952;100.608;2022-08-01T10:29:07;1002.59;;;29.82;100.00
37170;BME280;23062;13.952;100.608;2022-08-01T10:33:58;1002.65;;;29.82;100.00
37170;BME280;23062;13.952;100.608;2022-08-01T10:38:48;1002.67;;;29.81;100.00
37170;BME280;23062;13.952;100.608;2022-08-01T10:43:38;1002.72;;;29.82;100.00
37170;BME280;23062;13.952;100.608;2022-08-01T10:53:34;1002.73;;;29.80;100.00
37170;BME280;23062;13.952;100.608;2022-08-01T10:58:36;1002.77;;;29.83;100.00
37170;BME280;23062;13.952;100.608;2022-08-01T11:03:32;1002.78;;;29.80;100.00
37170;BME280;23062;13.952;100.608;2022-08-01T11:08:23;1002.91;;;29.87;100.00
37170;BME280;23062;13.952;100.608;2022-08-01T11:13:13;1003.16;;;29.94;100.00
37170;BME280;23062;13.952;100.608;2022-08-01T11:23:16;1003.43;;;29.97;100.00
37170;BME280;23062;13.952;100.608;2022-08-01T11:28:17;1003.41;;;29.96;100.00
37170;BME280;23062;13.952;100.608;2022-08-01T11:33:17;1003.46;;;29.97;100.00
37170;BME280;23062;13.952;100.608;2022-08-01T11:38:27;1003.48;;;29.88;100.00
37170;BME280;23062;13.952;100.608;2022-08-01T11:43:19;1003.36;;;29.81;100.00
37170;BME280;23062;13.952;100.608;2022-08-01T11:48:20;1003.27;;;29.85;100.00
37170;BME280;23062;13.952;100.608;2022-08-01T11:53:09;1003.32;;;29.85;100.00
37170;BME280;23062;13.952;100.608;2022-08-01T11:58:03;1003.32;;;29.83;100.00
37170;BME280;23062;13.952;100.608;2022-08-01T12:03:03;1003.34;;;29.83;100.00
37170;BME280;23062;13.952;100.608;2022-08-01T12:07:54;1003.28;;;29.85;100.00
37170;BME280;23062;13.952;100.608;2022-08-01T12:12:52;1003.28;;;29.88;100.00
37170;BME280;23062;13.952;100.608;2022-08-01T12:17:47;1003.35;;;29.93;100.00
37170;BME280;23062;13.952;100.608;2022-08-01T12:22:37;1003.44;;;29.90;100.00
37170;BME280;23062;13.952;100.608;2022-08-01T12:27:31;1003.48;;;29.92;100.00
37170;BME280;23062;13.952;100.608;2022-08-01T12:32:33;1003.52;;;29.89;100.00
37170;BME280;23062;13.952;100.608;2022-08-01T12:37:18;1003.61;;;29.88;100.00
37170;BME280;23062;13.952;100.608;2022-08-01T12:42:09;1003.65;;;29.89;100.00
37170;BME280;23062;13.952;100.608;2022-08-01T12:46:59;1003.67;;;29.84;100.00
37170;BME280;23062;13.952;100.608;2022-08-01T12:51:49;1003.75;;;29.83;100.00
37170;BME280;23062;13.952;100.608;2022-08-01T12:56:39;1003.71;;;29.80;100.00
37170;BME280;23062;13.952;100.608;2022-08-01T13:01:29;1003.72;;;29.83;100.00
37170;BME280;23062;13.952;100.608;2022-08-01T13:06:19;1003.81;;;30.00;100.00
37170;BME280;23062;13.952;100.608;2022-08-01T13:11:10;1003.94;;;30.01;100.00
37170;BME280;23062;13.952;100.608;2022-08-01T13:16:06;1004.00;;;30.04;100.00
37170;BME280;23062;13.952;100.608;2022-08-01T13:21:15;1004.11;;;30.04;100.00
37170;BME280;23062;13.952;100.608;2022-08-01T13:26:05;1004.18;;;30.05;100.00
37170;BME280;23062;13.952;100.608;2022-08-01T13:35:54;1004.40;;;30.03;100.00
37170;BME280;23062;13.952;100.608;2022-08-01T13:40:46;1004.52;;;29.99;100.00
37170;BME280;23062;13.952;100.608;2022-08-01T13:45:35;1004.59;;;30.00;100.00
37170;BME280;23062;13.952;100.608;2022-08-01T13:50:26;1004.74;;;29.97;100.00
37170;BME280;23062;13.952;100.608;2022-08-01T13:55:16;1004.82;;;30.00;100.00
37170;BME280;23062;13.952;100.608;2022-08-01T14:00:08;1004.94;;;30.02;100.00
37170;BME280;23062;13.952;100.608;2022-08-01T14:04:58;1004.99;;;29.99;100.00
37170;BME280;23062;13.952;100.608;2022-08-01T14:09:49;1005.11;;;30.00;100.00
37170;BME280;23062;13.952;100.608;2022-08-01T14:14:38;1005.18;;;30.01;100.00
37170;BME280;23062;13.952;100.608;2022-08-01T14:19:28;1005.29;;;30.01;100.00
37170;BME280;23062;13.952;100.608;2022-08-01T14:24:17;1005.35;;;29.97;100.00
37170;BME280;23062;13.952;100.608;2022-08-01T14:29:08;1005.42;;;29.97;100.00
37170;BME280;23062;13.952;100.608;2022-08-01T14:33:58;1005.51;;;30.01;100.00
37170;BME280;23062;13.952;100.608;2022-08-01T14:38:48;1005.65;;;29.99;100.00
37170;BME280;23062;13.952;100.608;2022-08-01T14:43:38;1005.67;;;30.03;100.00
37170;BME280;23062;13.952;100.608;2022-08-01T14:48:28;1005.56;;;29.98;100.00
37170;BME280;23062;13.952;100.608;2022-08-01T14:53:18;1005.40;;;29.95;100.00
37170;BME280;23062;13.952;100.608;2022-08-01T14:58:08;1005.23;;;29.96;100.00
37170;BME280;23062;13.952;100.608;2022-08-01T15:02:57;1005.52;;;29.92;100.00
37170;BME280;23062;13.952;100.608;2022-08-01T15:07:48;1005.86;;;29.93;100.00
37170;BME280;23062;13.952;100.608;2022-08-01T15:12:37;1006.05;;;29.93;100.00
37170;BME280;23062;13.952;100.608;2022-08-01T15:17:28;1006.07;;;29.89;100.00
37170;BME280;23062;13.952;100.608;2022-08-01T15:22:20;1006.09;;;29.92;100.00
37170;BME280;23062;13.952;100.608;2022-08-01T15:27:11;1006.21;;;29.86;100.00
37170;BME280;23062;13.952;100.608;2022-08-01T15:32:01;1006.22;;;29.84;100.00
37170;BME280;23062;13.952;100.608;2022-08-01T15:36:52;1006.32;;;29.86;100.00
37170;BME280;23062;13.952;100.608;2022-08-01T15:41:41;1006.64;;;29.85;100.00
37170;BME280;23062;13.952;100.608;2022-08-01T15:46:31;1007.08;;;29.91;100.00
37170;BME280;23062;13.952;100.608;2022-08-01T15:51:20;1007.33;;;29.84;100.00
37170;BME280;23062;13.952;100.608;2022-08-01T15:56:10;1007.75;;;29.79;100.00
37170;BME280;23062;13.952;100.608;2022-08-01T16:01:00;1007.78;;;29.67;100.00
37170;BME280;23062;13.952;100.608;2022-08-01T16:05:49;1007.51;;;29.67;100.00
37170;BME280;23062;13.952;100.608;2022-08-01T16:10:39;1007.25;;;29.57;96.32
37170;BME280;23062;13.952;100.608;2022-08-01T16:15:29;1006.84;;;29.45;96.55
37170;BME280;23062;13.952;100.608;2022-08-01T16:20:20;1006.43;;;29.57;95.69
37170;BME280;23062;13.952;100.608;2022-08-01T16:25:10;1006.25;;;29.48;93.82
37170;BME280;23062;13.952;100.608;2022-08-01T16:30:01;1006.23;;;29.53;92.74
37170;BME280;23062;13.952;100.608;2022-08-01T16:34:51;1006.17;;;29.51;92.36
37170;BME280;23062;13.952;100.608;2022-08-01T16:39:40;1006.09;;;29.55;92.57
37170;BME280;23062;13.952;100.608;2022-08-01T16:44:31;1005.87;;;29.47;92.81
37170;BME280;23062;13.952;100.608;2022-08-01T16:49:21;1005.84;;;29.52;92.71
37170;BME280;23062;13.952;100.608;2022-08-01T16:54:11;1005.84;;;29.48;92.92
37170;BME280;23062;13.952;100.608;2022-08-01T16:59:01;1005.76;;;29.48;91.87
37170;BME280;23062;13.952;100.608;2022-08-01T17:03:51;1005.68;;;29.47;91.21
37170;BME280;23062;13.952;100.608;2022-08-01T17:08:44;1005.56;;;29.46;90.68
37170;BME280;23062;13.952;100.608;2022-08-01T17:13:34;1005.56;;;29.43;90.09
37170;BME280;23062;13.952;100.608;2022-08-01T17:18:24;1005.49;;;29.42;89.47
37170;BME280;23062;13.952;100.608;2022-08-01T17:23:14;1005.36;;;29.42;90.12
37170;BME280;23062;13.952;100.608;2022-08-01T17:28:04;1005.37;;;29.42;89.00
37170;BME280;23062;13.952;100.608;2022-08-01T17:32:54;1005.35;;;29.42;89.30
37170;BME280;23062;13.952;100.608;2022-08-01T17:37:44;1005.33;;;29.46;89.77
37170;BME280;23062;13.952;100.608;2022-08-01T17:42:34;1005.29;;;29.42;90.37
37170;BME280;23062;13.952;100.608;2022-08-01T17:47:24;1005.23;;;29.36;90.33
37170;BME280;23062;13.952;100.608;2022-08-01T17:52:13;1005.17;;;29.41;89.87
37170;BME280;23062;13.952;100.608;2022-08-01T17:57:04;1005.14;;;29.38;89.75
37170;BME280;23062;13.952;100.608;2022-08-01T18:01:53;1005.10;;;29.37;89.93
37170;BME280;23062;13.952;100.608;2022-08-01T18:06:43;1005.02;;;29.36;90.26
37170;BME280;23062;13.952;100.608;2022-08-01T18:11:32;1004.95;;;29.33;90.23
37170;BME280;23062;13.952;100.608;2022-08-01T18:16:22;1004.91;;;29.35;90.31
37170;BME280;23062;13.952;100.608;2022-08-01T18:21:12;1004.85;;;29.31;91.23
37170;BME280;23062;13.952;100.608;2022-08-01T18:26:02;1004.68;;;29.33;91.35
37170;BME280;23062;13.952;100.608;2022-08-01T18:30:56;1004.54;;;29.33;91.51
37170;BME280;23062;13.952;100.608;2022-08-01T18:35:46;1004.40;;;29.31;92.39
37170;BME280;23062;13.952;100.608;2022-08-01T18:40:35;1004.25;;;29.31;92.59
37170;BME280;23062;13.952;100.608;2022-08-01T18:45:25;1004.12;;;29.26;93.15
37170;BME280;23062;13.952;100.608;2022-08-01T18:50:15;1004.07;;;29.26;93.39
37170;BME280;23062;13.952;100.608;2022-08-01T18:55:06;1004.03;;;29.26;93.00
37170;BME280;23062;13.952;100.608;2022-08-01T18:59:55;1003.88;;;29.25;92.95
37170;BME280;23062;13.952;100.608;2022-08-01T19:04:45;1003.70;;;29.23;93.79
37170;BME280;23062;13.952;100.608;2022-08-01T19:09:36;1003.74;;;29.23;94.06
37170;BME280;23062;13.952;100.608;2022-08-01T19:14:26;1003.81;;;29.23;94.46
37170;BME280;23062;13.952;100.608;2022-08-01T19:19:16;1003.81;;;29.24;94.54
37170;BME280;23062;13.952;100.608;2022-08-01T19:24:08;1003.85;;;29.22;94.57
37170;BME280;23062;13.952;100.608;2022-08-01T19:29:20;1003.86;;;29.24;94.53
37170;BME280;23062;13.952;100.608;2022-08-01T19:34:11;1003.89;;;29.19;95.19
37170;BME280;23062;13.952;100.608;2022-08-01T19:39:02;1003.87;;;29.22;94.93
37170;BME280;23062;13.952;100.608;2022-08-01T19:43:53;1003.79;;;29.23;94.68
37170;BME280;23062;13.952;100.608;2022-08-01T19:48:43;1003.78;;;29.25;94.82
37170;BME280;23062;13.952;100.608;2022-08-01T19:53:38;1003.77;;;29.24;94.82
37170;BME280;23062;13.952;100.608;2022-08-01T19:58:29;1003.80;;;29.21;94.89
37170;BME280;23062;13.952;100.608;2022-08-01T20:03:19;1003.80;;;29.23;94.89
37170;BME280;23062;13.952;100.608;2022-08-01T20:08:09;1003.85;;;29.24;94.81
37170;BME280;23062;13.952;100.608;2022-08-01T20:13:00;1003.85;;;29.20;94.74
37170;BME280;23062;13.952;100.608;2022-08-01T20:17:51;1003.80;;;29.16;95.08
37170;BME280;23062;13.952;100.608;2022-08-01T20:22:41;1003.80;;;29.13;95.41
37170;BME280;23062;13.952;100.608;2022-08-01T20:27:32;1003.85;;;29.02;96.00
37170;BME280;23062;13.952;100.608;2022-08-01T20:32:22;1003.84;;;28.64;98.95
37170;BME280;23062;13.952;100.608;2022-08-01T20:37:13;1003.83;;;28.53;100.00
37170;BME280;23062;13.952;100.608;2022-08-01T20:42:04;1003.78;;;28.51;100.00
37170;BME280;23062;13.952;100.608;2022-08-01T20:46:54;1003.71;;;28.28;100.00
37170;BME280;23062;13.952;100.608;2022-08-01T20:51:44;1003.76;;;28.22;100.00
37170;BME280;23062;13.952;100.608;2022-08-01T20:56:37;1003.79;;;28.21;100.00
37170;BME280;23062;13.952;100.608;2022-08-01T21:01:32;1003.85;;;28.12;100.00
37170;BME280;23062;13.952;100.608;2022-08-01T21:06:27;1003.92;;;28.10;100.00
37170;BME280;23062;13.952;100.608;2022-08-01T21:11:21;1003.91;;;28.00;100.00
37170;BME280;23062;13.952;100.608;2022-08-01T21:16:13;1003.92;;;28.03;100.00
37170;BME280;23062;13.952;100.608;2022-08-01T21:21:07;1003.88;;;27.98;100.00
37170;BME280;23062;13.952;100.608;2022-08-01T21:25:59;1003.90;;;28.00;100.00
37170;BME280;23062;13.952;100.608;2022-08-01T21:30:49;1003.93;;;27.95;100.00
37170;BME280;23062;13.952;100.608;2022-08-01T21:35:41;1003.85;;;27.96;100.00
37170;BME280;23062;13.952;100.608;2022-08-01T21:40:34;1003.73;;;28.13;100.00
37170;BME280;23062;13.952;100.608;2022-08-01T21:45:24;1003.72;;;28.18;100.00
37170;BME280;23062;13.952;100.608;2022-08-01T21:50:14;1003.65;;;28.14;100.00
37170;BME280;23062;13.952;100.608;2022-08-01T21:55:15;1003.60;;;28.10;100.00
37170;BME280;23062;13.952;100.608;2022-08-01T22:00:16;1003.65;;;28.03;100.00
37170;BME280;23062;13.952;100.608;2022-08-01T22:05:09;1003.67;;;28.06;100.00
37170;BME280;23062;13.952;100.608;2022-08-01T22:10:03;1003.69;;;28.00;100.00
37170;BME280;23062;13.952;100.608;2022-08-01T22:14:54;1003.75;;;28.06;100.00
37170;BME280;23062;13.952;100.608;2022-08-01T22:19:45;1003.86;;;28.02;100.00
37170;BME280;23062;13.952;100.608;2022-08-01T22:24:36;1003.52;;;27.95;100.00
37170;BME280;23062;13.952;100.608;2022-08-01T22:29:27;1003.86;;;28.06;100.00
37170;BME280;23062;13.952;100.608;2022-08-01T22:34:17;1003.94;;;28.05;100.00
37170;BME280;23062;13.952;100.608;2022-08-01T22:39:07;1003.94;;;28.04;100.00
37170;BME280;23062;13.952;100.608;2022-08-01T22:44:02;1004.04;;;28.08;100.00
37170;BME280;23062;13.952;100.608;2022-08-01T22:48:55;1004.06;;;28.07;100.00
37170;BME280;23062;13.952;100.608;2022-08-01T22:54:13;1004.09;;;28.32;100.00
37170;BME280;23062;13.952;100.608;2022-08-01T22:59:00;1004.22;;;28.42;100.00
37170;BME280;23062;13.952;100.608;2022-08-01T23:03:50;1004.25;;;28.43;100.00
37170;BME280;23062;13.952;100.608;2022-08-01T23:08:41;1004.30;;;28.41;100.00
37170;BME280;23062;13.952;100.608;2022-08-01T23:13:32;1004.36;;;28.48;100.00
37170;BME280;23062;13.952;100.608;2022-08-01T23:18:22;1004.36;;;28.49;100.00
37170;BME280;23062;13.952;100.608;2022-08-01T23:23:13;1004.36;;;28.52;100.00
37170;BME280;23062;13.952;100.608;2022-08-01T23:28:04;1004.32;;;28.51;100.00
37170;BME280;23062;13.952;100.608;2022-08-01T23:32:55;1004.32;;;28.55;100.00
37170;BME280;23062;13.952;100.608;2022-08-01T23:37:45;1004.40;;;28.56;100.00
37170;BME280;23062;13.952;100.608;2022-08-01T23:42:35;1004.45;;;28.57;100.00
37170;BME280;23062;13.952;100.608;2022-08-01T23:47:25;1004.57;;;28.52;100.00
37170;BME280;23062;13.952;100.608;2022-08-01T23:52:15;1004.59;;;28.52;100.00
37170;BME280;23062;13.952;100.608;2022-08-01T23:57:05;1004.69;;;28.55;100.00
